Terminal Aerodrome Forecast
Issued by NWS Wilmington, OH

Current Version | Previous Version | Graphics & Text | Print | Product List | Glossary On
Versions: 1 2 3 4 5 6 7 8 9 10 11 12 13 14 15 16 17 18 19 20 21 22 23 24 25 26 27 28 29 30
000
FTUS41 KILN 211019 AAB
TAFDAY
TAF AMD
KDAY 211019Z 2110/2206 32014G22KT 3SM -SHRA BR BKN025 OVC080
     FM211100 32014KT P6SM -SHRA SCT025 OVC040
     FM211200 32011KT 3SM -SHRA BR OVC006
     FM211500 36011KT P6SM -SHRA OVC007
     FM212200 02012KT P6SM OVC010
     FM220200 04012KT 4SM -RA BR OVC010=

USA.gov is the U.S. government's official web portal to all federal, state and local government web resources and services.